createdAt,value
2023-08-29T00:03:49.148Z,61.27
2023-08-29T00:08:01.634Z,61.62
2023-08-29T00:12:14.071Z,61.47
2023-08-29T00:16:26.803Z,60.55
2023-08-29T00:20:39.188Z,60.54
2023-08-29T00:24:53.796Z,59.83
2023-08-29T00:29:06.386Z,59.73
2023-08-29T00:33:18.917Z,58.13
2023-08-29T00:37:31.229Z,56.91
2023-08-29T00:41:45.255Z,58.13
2023-08-29T00:46:00.502Z,58.94
2023-08-29T00:50:13.008Z,58.51
2023-08-29T00:54:26.060Z,58.49
2023-08-29T00:58:38.572Z,58.67
2023-08-29T01:02:51.151Z,59.07
2023-08-29T01:07:04.860Z,60.05
2023-08-29T01:11:35.592Z,61.74
2023-08-29T01:15:51.974Z,61.68
2023-08-29T01:20:06.661Z,60.58
2023-08-29T01:24:27.701Z,62.02
2023-08-29T01:28:42.389Z,64.38
2023-08-29T01:32:56.462Z,64.73
2023-08-29T01:37:10.005Z,65.12
2023-08-29T01:41:22.364Z,66.25
2023-08-29T01:45:35.163Z,69.84
2023-08-29T01:49:48.198Z,72.85
2023-08-29T01:54:00.911Z,73.75
2023-08-29T01:58:15.648Z,72.65
2023-08-29T02:02:28.392Z,72.89
2023-08-29T02:06:40.795Z,72.03
2023-08-29T02:10:54.456Z,69.75
2023-08-29T02:15:07.766Z,69.51
2023-08-29T02:19:21.003Z,67.58
2023-08-29T02:23:33.384Z,66.08
2023-08-29T02:27:45.734Z,65.25
2023-08-29T02:31:58.152Z,65.32
2023-08-29T02:36:10.529Z,65.93
2023-08-29T02:40:23.864Z,66.79
2023-08-29T02:44:36.341Z,66.79
2023-08-29T02:48:48.827Z,66.62
2023-08-29T02:53:01.241Z,66.24
2023-08-29T02:57:13.801Z,66.36
2023-08-29T03:01:26.214Z,66.34
2023-08-29T03:05:38.645Z,65.69
2023-08-29T03:09:51.089Z,65.87
2023-08-29T03:14:05.235Z,65.47
2023-08-29T03:18:17.923Z,65.58
2023-08-29T03:22:32.765Z,64.82
2023-08-29T03:26:45.137Z,63.87
2023-08-29T03:30:57.634Z,62.39
2023-08-29T03:35:09.981Z,62.16
2023-08-29T03:39:22.554Z,61.73
2023-08-29T03:43:36.726Z,61.44
2023-08-29T03:47:50.479Z,70.40
2023-08-29T03:52:03.970Z,73.72
2023-08-29T03:56:17.065Z,74.33
2023-08-29T04:00:29.523Z,74.33
2023-08-29T04:04:45.690Z,75.26
2023-08-29T04:08:58.302Z,74.79
2023-08-29T04:13:11.641Z,74.80
2023-08-29T04:17:26.475Z,74.13
2023-08-29T04:21:39.000Z,74.20
2023-08-29T04:25:51.400Z,73.92
2023-08-29T04:30:05.765Z,73.67
2023-08-29T04:34:18.607Z,73.80
2023-08-29T04:38:32.906Z,73.88
2023-08-29T04:42:49.080Z,74.07
2023-08-29T04:47:01.943Z,73.78
2023-08-29T04:51:14.530Z,73.04
2023-08-29T04:55:27.664Z,73.14
2023-08-29T04:59:40.165Z,73.01
2023-08-29T05:03:53.004Z,72.28
2023-08-29T05:08:06.117Z,71.42
2023-08-29T05:12:20.901Z,70.48
2023-08-29T05:16:34.156Z,69.35
2023-08-29T05:20:46.706Z,68.40
2023-08-29T05:24:59.179Z,66.22
2023-08-29T05:29:11.612Z,63.52
2023-08-29T05:33:23.920Z,63.32
2023-08-29T05:37:36.440Z,59.27
2023-08-29T05:41:48.778Z,56.28
2023-08-29T05:46:02.255Z,54.29
2023-08-29T05:50:17.886Z,54.38
2023-08-29T05:54:31.103Z,55.27
2023-08-29T05:58:44.268Z,56.02
2023-08-29T06:02:56.774Z,58.56
2023-08-29T06:07:09.314Z,59.72
2023-08-29T06:11:21.771Z,60.13
2023-08-29T06:15:34.096Z,58.88
2023-08-29T06:19:46.889Z,59.41
2023-08-29T06:23:59.675Z,58.51
2023-08-29T06:28:12.115Z,57.14
2023-08-29T06:32:24.616Z,55.41
2023-08-29T06:36:37.086Z,56.47
2023-08-29T06:40:59.838Z,56.16
2023-08-29T06:45:12.327Z,55.80
2023-08-29T06:49:24.699Z,56.30
2023-08-29T06:53:37.126Z,55.82
2023-08-29T06:57:49.647Z,55.39
2023-08-29T07:02:02.146Z,56.16
2023-08-29T07:06:14.572Z,55.67
2023-08-29T07:10:27.439Z,55.50
2023-08-29T07:14:42.793Z,54.86
2023-08-29T07:18:56.417Z,53.31
2023-08-29T07:23:09.173Z,51.86
2023-08-29T07:27:21.641Z,53.17
2023-08-29T07:31:35.871Z,53.65
2023-08-29T07:35:50.134Z,53.26
2023-08-29T07:40:02.595Z,53.37
2023-08-29T07:44:15.089Z,52.79
2023-08-29T07:48:27.527Z,51.74
2023-08-29T07:52:41.913Z,51.29
2023-08-29T07:56:54.901Z,50.55
2023-08-29T08:01:07.207Z,49.73
2023-08-29T08:05:20.168Z,49.43
2023-08-29T08:09:33.659Z,49.56
2023-08-29T08:13:46.335Z,48.92
2023-08-29T08:17:58.669Z,47.10
2023-08-29T08:22:11.922Z,45.72
2023-08-29T08:26:24.289Z,44.04
2023-08-29T08:30:41.340Z,43.15
2023-08-29T08:34:56.762Z,42.25
2023-08-29T08:39:09.259Z,40.46
2023-08-29T08:43:23.032Z,39.43
2023-08-29T08:47:36.738Z,37.62
2023-08-29T08:51:50.158Z,40.07
2023-08-29T08:56:04.012Z,39.59
2023-08-29T09:00:17.004Z,41.87
2023-08-29T09:04:29.449Z,42.74
2023-08-29T09:08:43.510Z,43.67
2023-08-29T09:12:57.556Z,44.88
2023-08-29T09:17:12.757Z,43.97
2023-08-29T09:21:26.244Z,44.24
2023-08-29T09:25:38.992Z,44.32
2023-08-29T09:29:51.481Z,42.42
2023-08-29T09:34:06.271Z,41.23
2023-08-29T09:38:20.048Z,38.21
2023-08-29T09:42:32.617Z,38.52
2023-08-29T09:46:46.704Z,37.82
2023-08-29T09:51:01.053Z,35.73
2023-08-29T09:55:16.478Z,37.98
2023-08-29T09:59:32.754Z,37.59
2023-08-29T10:03:48.127Z,37.86
2023-08-29T10:08:07.012Z,36.68
2023-08-29T10:12:20.649Z,35.97
2023-08-29T10:16:33.662Z,36.74
2023-08-29T10:20:47.524Z,38.47
2023-08-29T10:25:02.161Z,38.81
2023-08-29T10:29:15.992Z,38.53
2023-08-29T10:33:30.223Z,38.74
2023-08-29T10:37:43.423Z,39.21
2023-08-29T10:41:58.018Z,38.47
2023-08-29T10:46:13.542Z,36.79
2023-08-29T10:50:28.486Z,35.25
2023-08-29T10:54:41.891Z,34.21
2023-08-29T10:58:54.513Z,34.59
2023-08-29T11:03:07.265Z,34.79
2023-08-29T11:07:27.139Z,34.89
2023-08-29T11:11:40.790Z,32.22
2023-08-29T11:15:53.157Z,32.38
2023-08-29T11:20:08.463Z,35.56
2023-08-29T11:24:22.613Z,34.53
2023-08-29T11:28:35.720Z,34.72
2023-08-29T11:32:53.070Z,35.58
2023-08-29T11:37:11.374Z,36.70
2023-08-29T11:41:38.200Z,36.65
2023-08-29T11:46:00.456Z,36.46
2023-08-29T11:50:13.387Z,31.17
2023-08-29T11:54:47.102Z,30.60
2023-08-29T11:59:02.234Z,30.03
2023-08-29T12:03:14.830Z,30.12
2023-08-29T12:07:33.863Z,29.30
2023-08-29T12:11:47.604Z,28.98
2023-08-29T12:16:00.113Z,30.02
2023-08-29T12:20:15.457Z,30.68
2023-08-29T12:24:28.104Z,29.91
2023-08-29T12:28:41.069Z,29.96
2023-08-29T12:32:54.610Z,29.10
2023-08-29T12:37:07.170Z,29.48
2023-08-29T12:41:19.606Z,28.89
2023-08-29T12:45:36.639Z,29.25
2023-08-29T12:49:57.321Z,28.51
2023-08-29T12:54:10.314Z,27.84
2023-08-29T12:58:22.831Z,28.51
2023-08-29T13:02:36.110Z,27.52
2023-08-29T13:06:48.596Z,26.91
2023-08-29T13:11:01.621Z,26.55
2023-08-29T13:15:17.255Z,27.79
2023-08-29T13:19:29.859Z,27.92
2023-08-29T13:23:42.280Z,27.75
2023-08-29T13:27:57.888Z,27.56
2023-08-29T13:32:10.714Z,27.36
2023-08-29T13:36:23.311Z,26.90
2023-08-29T13:40:52.545Z,27.03
2023-08-29T13:45:05.957Z,26.05
2023-08-29T13:49:18.825Z,26.57
2023-08-29T13:53:31.325Z,28.58
2023-08-29T13:57:44.245Z,28.18
2023-08-29T14:01:56.775Z,28.94
2023-08-29T14:06:09.751Z,29.35
2023-08-29T14:10:22.211Z,29.53
2023-08-29T14:14:34.604Z,29.72
2023-08-29T14:18:47.511Z,29.67
2023-08-29T14:23:02.419Z,31.43
2023-08-29T14:27:14.876Z,30.10
2023-08-29T14:31:27.352Z,30.63
2023-08-29T14:35:40.204Z,32.17
2023-08-29T14:39:52.741Z,32.70
2023-08-29T14:44:06.756Z,32.52
2023-08-29T14:48:21.298Z,31.89
2023-08-29T14:52:34.129Z,31.92
2023-08-29T14:56:46.543Z,31.12
2023-08-29T15:00:59.279Z,32.20
2023-08-29T15:05:13.146Z,32.50
2023-08-29T15:09:25.555Z,31.84
2023-08-29T15:13:39.996Z,30.34
2023-08-29T15:17:52.638Z,29.59
2023-08-29T15:22:05.233Z,29.88
2023-08-29T15:26:17.615Z,30.57
2023-08-29T15:30:30.020Z,31.56
2023-08-29T15:34:42.403Z,32.66
2023-08-29T15:38:54.876Z,32.42
2023-08-29T15:43:07.222Z,34.01
2023-08-29T15:47:19.567Z,34.06
2023-08-29T15:51:33.158Z,32.93
2023-08-29T15:55:47.109Z,32.68
2023-08-29T15:59:59.718Z,32.94
2023-08-29T16:04:12.989Z,32.67
2023-08-29T16:08:26.720Z,33.02
2023-08-29T16:12:39.238Z,33.82
2023-08-29T16:16:51.596Z,33.18
2023-08-29T16:21:05.262Z,32.46
2023-08-29T16:25:17.827Z,34.15
2023-08-29T16:29:31.759Z,34.78
2023-08-29T16:33:44.089Z,35.64
2023-08-29T16:38:05.642Z,36.12
2023-08-29T16:42:18.336Z,36.74
2023-08-29T16:46:31.482Z,36.88
2023-08-29T16:50:47.008Z,37.41
2023-08-29T16:54:59.607Z,37.90
2023-08-29T16:59:14.794Z,38.56
2023-08-29T17:03:27.392Z,39.04
2023-08-29T17:07:39.863Z,39.51
2023-08-29T17:11:52.343Z,40.29
2023-08-29T17:16:06.277Z,41.29
2023-08-29T17:20:18.974Z,42.24
2023-08-29T17:24:32.488Z,43.52
2023-08-29T17:28:44.995Z,43.66
2023-08-29T17:32:57.578Z,44.45
2023-08-29T17:37:10.037Z,44.70
2023-08-29T17:41:23.815Z,44.99
2023-08-29T17:45:43.974Z,46.06
2023-08-29T17:49:56.484Z,47.07
2023-08-29T17:54:09.357Z,47.84
2023-08-29T17:58:25.821Z,48.72
2023-08-29T18:02:38.435Z,49.40
2023-08-29T18:06:50.863Z,49.15
2023-08-29T18:11:03.455Z,49.60
2023-08-29T18:15:16.580Z,49.54
2023-08-29T18:19:28.904Z,50.37
2023-08-29T18:23:41.354Z,50.97
2023-08-29T18:27:53.905Z,51.86
2023-08-29T18:32:06.727Z,52.11
2023-08-29T18:36:19.246Z,52.31
2023-08-29T18:40:31.982Z,52.59
2023-08-29T18:44:44.364Z,51.60
2023-08-29T18:48:57.430Z,51.90
2023-08-29T18:53:11.111Z,51.04
2023-08-29T18:57:23.815Z,50.07
2023-08-29T19:01:36.534Z,50.56
2023-08-29T19:05:49.219Z,50.73
2023-08-29T19:10:02.496Z,50.73
2023-08-29T19:14:14.887Z,50.23
2023-08-29T19:18:28.441Z,50.92
2023-08-29T19:22:40.927Z,50.78
2023-08-29T19:26:53.311Z,50.43
2023-08-29T19:31:05.735Z,51.09
2023-08-29T19:35:18.255Z,50.51
2023-08-29T19:39:31.868Z,50.77
2023-08-29T19:43:44.358Z,49.94
2023-08-29T19:47:57.361Z,50.91
2023-08-29T19:52:09.991Z,50.24
2023-08-29T19:56:22.316Z,50.74
2023-08-29T20:00:34.783Z,51.73
2023-08-29T20:04:47.178Z,52.25
2023-08-29T20:08:59.676Z,53.13
2023-08-29T20:13:12.331Z,53.63
2023-08-29T20:17:25.489Z,54.36
2023-08-29T20:21:38.060Z,54.92
2023-08-29T20:25:52.121Z,55.12
2023-08-29T20:30:06.048Z,55.04
2023-08-29T20:34:18.504Z,55.37
2023-08-29T20:38:31.073Z,54.71
2023-08-29T20:42:43.711Z,54.27
2023-08-29T20:46:56.239Z,53.90
2023-08-29T20:51:08.957Z,54.29
2023-08-29T20:55:23.266Z,54.13
2023-08-29T20:59:35.746Z,54.02
2023-08-29T21:03:48.215Z,54.58
2023-08-29T21:08:00.776Z,54.58
2023-08-29T21:12:13.329Z,54.61
2023-08-29T21:16:25.993Z,54.45
2023-08-29T21:20:39.110Z,54.62
2023-08-29T21:24:51.612Z,54.69
2023-08-29T21:29:04.088Z,55.19
2023-08-29T21:33:16.545Z,54.26
2023-08-29T21:37:28.985Z,54.60
2023-08-29T21:41:41.873Z,54.20
2023-08-29T21:46:01.944Z,55.12
2023-08-29T21:50:14.493Z,54.13
2023-08-29T21:54:26.805Z,54.64
2023-08-29T21:58:39.428Z,54.67
2023-08-29T22:02:55.748Z,54.82
2023-08-29T22:07:08.270Z,54.64
2023-08-29T22:11:20.668Z,55.15
2023-08-29T22:15:33.192Z,55.01
2023-08-29T22:19:45.643Z,55.48
2023-08-29T22:23:58.045Z,55.77
2023-08-29T22:28:10.792Z,55.50
2023-08-29T22:32:23.586Z,55.59
2023-08-29T22:36:37.307Z,56.01
2023-08-29T22:40:50.322Z,55.46
2023-08-29T22:45:02.645Z,55.61
2023-08-29T22:49:15.033Z,55.69
2023-08-29T22:53:27.453Z,55.95
2023-08-29T22:57:39.917Z,56.10
2023-08-29T23:01:53.416Z,56.39
2023-08-29T23:06:06.955Z,56.49
2023-08-29T23:10:19.560Z,56.07
2023-08-29T23:14:32.655Z,55.15
2023-08-29T23:18:45.089Z,55.29
2023-08-29T23:22:57.513Z,55.26
2023-08-29T23:27:09.895Z,55.12
2023-08-29T23:31:22.330Z,55.08
2023-08-29T23:35:34.841Z,55.24
2023-08-29T23:39:47.373Z,54.74
2023-08-29T23:44:00.484Z,55.28
2023-08-29T23:48:12.937Z,55.31
2023-08-29T23:52:25.970Z,54.19
2023-08-29T23:56:38.522Z,54.19
